createdAt,value
2017-01-02T00:00:00.065Z,0
2017-01-02T00:01:10.955Z,0
2017-01-02T00:02:21.900Z,0
2017-01-02T00:03:33.221Z,0
2017-01-02T00:04:44.106Z,0
2017-01-02T00:05:55.427Z,0
2017-01-02T00:07:06.748Z,0
2017-01-02T00:08:17.694Z,0
2017-01-02T00:09:29.015Z,0
2017-01-02T00:10:39.904Z,0
2017-01-02T00:11:51.222Z,0
2017-01-02T00:13:01.691Z,0
2017-01-02T00:14:13.055Z,0
2017-01-02T00:15:23.949Z,0
2017-01-02T00:16:34.849Z,0
2017-01-02T00:17:46.163Z,0
2017-01-02T00:18:56.632Z,0
2017-01-02T00:20:07.577Z,0
2017-01-02T00:21:18.902Z,0
2017-01-02T00:22:30.227Z,0
2017-01-02T00:23:41.121Z,0
2017-01-02T00:24:52.438Z,0
2017-01-02T00:26:03.379Z,0
2017-01-02T00:27:14.272Z,0
2017-01-02T00:28:25.169Z,0
2017-01-02T00:29:36.070Z,0
2017-01-02T00:30:47.387Z,0
2017-01-02T00:31:58.329Z,0
2017-01-02T00:33:09.650Z,0
2017-01-02T00:34:20.967Z,0
2017-01-02T00:35:32.284Z,0
2017-01-02T00:36:43.609Z,0
2017-01-02T00:37:54.555Z,0
2017-01-02T00:39:05.476Z,0
2017-01-02T00:40:16.377Z,0
2017-01-02T00:41:27.698Z,0
2017-01-02T00:42:38.595Z,0
2017-01-02T00:43:49.532Z,0
2017-01-02T00:45:00.461Z,0
2017-01-02T00:46:11.782Z,0
2017-01-02T00:47:22.684Z,0
2017-01-02T00:48:33.585Z,0
2017-01-02T00:49:44.954Z,0
2017-01-02T00:50:55.847Z,0
2017-01-02T00:52:06.737Z,0
2017-01-02T00:53:18.065Z,0
2017-01-02T00:54:28.962Z,0
2017-01-02T00:55:39.904Z,0
2017-01-02T00:56:51.221Z,0
2017-01-02T00:58:02.118Z,0
2017-01-02T00:59:13.050Z,0
2017-01-02T01:00:23.940Z,0
2017-01-02T01:01:35.301Z,0
2017-01-02T01:02:46.203Z,0
2017-01-02T01:03:57.092Z,0
2017-01-02T01:05:07.997Z,0
2017-01-02T01:06:18.890Z,0
2017-01-02T01:07:29.835Z,0
2017-01-02T01:08:40.304Z,0
2017-01-02T01:09:51.630Z,0
2017-01-02T01:11:02.955Z,0
2017-01-02T01:12:13.880Z,0
2017-01-02T01:13:25.253Z,0
2017-01-02T01:14:36.154Z,0
2017-01-02T01:15:47.475Z,0
2017-01-02T01:16:58.796Z,0
2017-01-02T01:18:10.113Z,0
2017-01-02T01:19:21.511Z,0
2017-01-02T01:20:32.844Z,0
2017-01-02T01:21:44.161Z,0
2017-01-02T01:22:55.058Z,0
2017-01-02T01:24:06.914Z,0
2017-01-02T01:25:17.316Z,0
2017-01-02T01:26:28.210Z,0
2017-01-02T01:27:39.103Z,0
2017-01-02T01:28:50.001Z,0
2017-01-02T01:30:01.325Z,0
2017-01-02T01:31:12.747Z,0
2017-01-02T01:32:23.637Z,0
2017-01-02T01:33:34.965Z,0
2017-01-02T01:34:45.858Z,0
2017-01-02T01:35:56.787Z,0
2017-01-02T01:37:07.733Z,0
2017-01-02T01:38:18.629Z,0
2017-01-02T01:39:29.943Z,0
2017-01-02T01:40:40.840Z,0
2017-01-02T01:41:52.157Z,0
2017-01-02T01:43:02.670Z,0
2017-01-02T01:44:13.147Z,0
2017-01-02T01:45:24.041Z,0
2017-01-02T01:46:35.366Z,0
2017-01-02T01:47:46.271Z,0
2017-01-02T01:48:57.641Z,0
2017-01-02T01:50:08.537Z,0
2017-01-02T01:51:19.859Z,0
2017-01-02T01:52:30.760Z,0
2017-01-02T01:53:41.656Z,0
2017-01-02T01:54:53.046Z,0
2017-01-02T01:56:04.367Z,0
2017-01-02T01:57:14.825Z,0
2017-01-02T01:58:26.146Z,0
2017-01-02T01:59:37.051Z,0
2017-01-02T02:00:48.120Z,0
2017-01-02T02:01:59.013Z,0
2017-01-02T02:03:10.334Z,0
2017-01-02T02:04:21.224Z,0
2017-01-02T02:05:32.117Z,0
2017-01-02T02:06:43.490Z,0
2017-01-02T02:07:54.375Z,0
2017-01-02T02:09:05.260Z,0
2017-01-02T02:10:16.590Z,0
2017-01-02T02:11:27.907Z,0
2017-01-02T02:12:38.852Z,0
2017-01-02T02:13:50.173Z,0
2017-01-02T02:15:01.495Z,0
2017-01-02T02:16:12.388Z,0
2017-01-02T02:17:23.309Z,0
2017-01-02T02:18:34.674Z,0
2017-01-02T02:19:45.143Z,0
2017-01-02T02:20:56.032Z,0
2017-01-02T02:22:07.358Z,0
2017-01-02T02:23:18.271Z,0
2017-01-02T02:24:29.216Z,0
2017-01-02T02:25:40.106Z,0
2017-01-02T02:26:51.427Z,0
2017-01-02T02:28:02.320Z,0
2017-01-02T02:29:13.641Z,0
2017-01-02T02:30:25.014Z,0
2017-01-02T02:31:35.911Z,0
2017-01-02T02:32:47.237Z,0
2017-01-02T02:33:58.136Z,0
2017-01-02T02:35:09.027Z,0
2017-01-02T02:36:19.972Z,0
2017-01-02T02:37:30.857Z,0
2017-01-02T02:38:42.174Z,0
2017-01-02T02:39:53.079Z,0
2017-01-02T02:41:03.989Z,0
2017-01-02T02:42:15.374Z,0
2017-01-02T02:43:26.267Z,0
2017-01-02T02:44:37.164Z,0
2017-01-02T02:45:48.054Z,0
2017-01-02T02:46:59.379Z,0
2017-01-02T02:48:10.324Z,0
2017-01-02T02:49:21.237Z,0
2017-01-02T02:50:32.562Z,0
2017-01-02T02:51:43.903Z,0
2017-01-02T02:52:55.229Z,0
2017-01-02T02:54:06.818Z,0
2017-01-02T02:55:17.707Z,0
2017-01-02T02:56:28.600Z,0
2017-01-02T02:57:39.498Z,0
2017-01-02T02:58:50.831Z,0
2017-01-02T03:00:02.204Z,0
2017-01-02T03:01:13.533Z,0
2017-01-02T03:02:24.426Z,0
2017-01-02T03:03:35.743Z,0
2017-01-02T03:04:46.637Z,0
2017-01-02T03:05:58.022Z,0
2017-01-02T03:07:09.351Z,0
2017-01-02T03:08:20.676Z,0
2017-01-02T03:09:31.142Z,0
2017-01-02T03:10:42.463Z,0
2017-01-02T03:11:53.400Z,0
2017-01-02T03:13:04.721Z,0
2017-01-02T03:14:15.622Z,0
2017-01-02T03:15:26.939Z,0
2017-01-02T03:16:38.260Z,0
2017-01-02T03:17:49.201Z,0
2017-01-02T03:19:00.091Z,0
2017-01-02T03:20:11.416Z,0
2017-01-02T03:21:22.725Z,0
2017-01-02T03:22:33.619Z,0
2017-01-02T03:23:44.568Z,0
2017-01-02T03:24:55.893Z,0
2017-01-02T03:26:07.210Z,0
2017-01-02T03:27:18.096Z,0
2017-01-02T03:28:29.417Z,0
2017-01-02T03:29:40.814Z,0
2017-01-02T03:30:52.131Z,0
2017-01-02T03:32:03.448Z,0
2017-01-02T03:33:14.774Z,0
2017-01-02T03:34:25.659Z,0
2017-01-02T03:35:37.024Z,0
2017-01-02T03:36:48.349Z,0
2017-01-02T03:37:59.662Z,0
2017-01-02T03:39:10.139Z,0
2017-01-02T03:40:21.028Z,0
2017-01-02T03:41:32.410Z,0
2017-01-02T03:42:43.299Z,0
2017-01-02T03:43:54.192Z,0
2017-01-02T03:45:05.085Z,0
2017-01-02T03:46:15.978Z,0
2017-01-02T03:47:26.943Z,0
2017-01-02T03:48:38.269Z,0
2017-01-02T03:49:49.593Z,0
2017-01-02T03:51:00.911Z,0
2017-01-02T03:52:11.808Z,0
2017-01-02T03:53:22.842Z,0
2017-01-02T03:54:33.306Z,0
2017-01-02T03:55:44.208Z,0
2017-01-02T03:56:55.105Z,0
2017-01-02T03:58:06.430Z,0
2017-01-02T03:59:17.383Z,0
2017-01-02T04:00:28.284Z,0
2017-01-02T04:01:39.609Z,0
2017-01-02T04:02:50.490Z,0
2017-01-02T04:04:01.816Z,0
2017-01-02T04:05:13.188Z,0
2017-01-02T04:06:24.514Z,0
2017-01-02T04:07:35.865Z,0
2017-01-02T04:08:47.184Z,0
2017-01-02T04:09:58.501Z,0
2017-01-02T04:11:09.454Z,0
2017-01-02T04:12:20.351Z,0
2017-01-02T04:13:31.668Z,0
2017-01-02T04:14:42.558Z,0
2017-01-02T04:15:53.883Z,0
2017-01-02T04:17:05.264Z,0
2017-01-02T04:18:16.581Z,0
2017-01-02T04:19:27.474Z,0
2017-01-02T04:20:38.796Z,0
2017-01-02T04:21:50.117Z,0
2017-01-02T04:23:01.078Z,0
2017-01-02T04:24:12.403Z,0
2017-01-02T04:25:23.320Z,0
2017-01-02T04:26:34.646Z,0
2017-01-02T04:27:45.535Z,0
2017-01-02T04:28:56.908Z,0
2017-01-02T04:30:07.793Z,0
2017-01-02T04:31:19.118Z,0
2017-01-02T04:32:30.435Z,0
2017-01-02T04:33:41.336Z,0
2017-01-02T04:34:52.710Z,0
2017-01-02T04:36:03.603Z,0
2017-01-02T04:37:14.492Z,0
2017-01-02T04:38:25.817Z,0
2017-01-02T04:39:37.146Z,0
2017-01-02T04:40:48.087Z,0
2017-01-02T04:41:59.436Z,0
2017-01-02T04:43:10.765Z,0
2017-01-02T04:44:22.087Z,0
2017-01-02T04:45:32.972Z,0
2017-01-02T04:46:44.345Z,0
2017-01-02T04:47:55.670Z,0
2017-01-02T04:49:06.559Z,0
2017-01-02T04:50:17.876Z,0
2017-01-02T04:51:29.194Z,0
2017-01-02T04:52:40.558Z,0
2017-01-02T04:53:51.456Z,0
2017-01-02T04:55:02.345Z,0
2017-01-02T04:56:13.681Z,0
2017-01-02T04:57:25.015Z,0
2017-01-02T04:58:35.957Z,0
2017-01-02T04:59:47.278Z,0
2017-01-02T05:00:58.599Z,0
2017-01-02T05:02:09.491Z,0
2017-01-02T05:03:20.817Z,0
2017-01-02T05:04:32.186Z,0
2017-01-02T05:05:43.075Z,0
2017-01-02T05:06:54.400Z,0
2017-01-02T05:08:04.865Z,0
2017-01-02T05:09:16.182Z,0
2017-01-02T05:10:27.120Z,0
2017-01-02T05:11:38.441Z,0
2017-01-02T05:12:48.893Z,0
2017-01-02T05:14:00.214Z,0
2017-01-02T05:15:11.108Z,0
2017-01-02T05:16:22.477Z,0
2017-01-02T05:17:33.798Z,0
2017-01-02T05:18:44.723Z,0
2017-01-02T05:19:56.049Z,0
2017-01-02T05:21:06.942Z,0
2017-01-02T05:22:17.991Z,0
2017-01-02T05:23:29.308Z,0
2017-01-02T05:24:40.630Z,0
2017-01-02T05:25:51.963Z,0
2017-01-02T05:27:03.283Z,0
2017-01-02T05:28:14.225Z,0
2017-01-02T05:29:25.118Z,0
2017-01-02T05:30:36.443Z,0
2017-01-02T05:31:47.765Z,0
2017-01-02T05:32:59.082Z,0
2017-01-02T05:34:10.027Z,0
2017-01-02T05:35:21.356Z,0
2017-01-02T05:36:32.253Z,0
2017-01-02T05:37:43.139Z,0
2017-01-02T05:38:54.463Z,0
2017-01-02T05:40:05.409Z,0
2017-01-02T05:41:16.730Z,0
2017-01-02T05:42:28.051Z,0
2017-01-02T05:43:38.948Z,0
2017-01-02T05:44:50.270Z,0
2017-01-02T05:46:01.643Z,0
2017-01-02T05:47:12.956Z,0
2017-01-02T05:48:24.277Z,0
2017-01-02T05:49:35.598Z,0
2017-01-02T05:50:46.491Z,0
2017-01-02T05:51:57.865Z,0
2017-01-02T05:53:08.754Z,0
2017-01-02T05:54:20.111Z,0
2017-01-02T05:55:30.576Z,0
2017-01-02T05:56:41.462Z,0
2017-01-02T05:57:52.406Z,0
2017-01-02T05:59:03.300Z,0
2017-01-02T06:00:14.197Z,0
2017-01-02T06:01:25.514Z,0
2017-01-02T06:02:35.978Z,0
2017-01-02T06:03:47.356Z,0
2017-01-02T06:04:58.683Z,0
2017-01-02T06:06:10.006Z,0
2017-01-02T06:07:21.328Z,0
2017-01-02T06:08:32.669Z,0
2017-01-02T06:09:44.039Z,0
2017-01-02T06:10:55.359Z,0
2017-01-02T06:12:05.824Z,0
2017-01-02T06:13:16.714Z,0
2017-01-02T06:14:28.035Z,0
2017-01-02T06:15:38.980Z,0
2017-01-02T06:16:49.873Z,0
2017-01-02T06:18:01.198Z,0
2017-01-02T06:19:12.516Z,0
2017-01-02T06:20:23.829Z,0
2017-01-02T06:21:34.770Z,0
2017-01-02T06:22:45.659Z,0
2017-01-02T06:23:56.976Z,0
2017-01-02T06:25:08.294Z,0
2017-01-02T06:26:19.615Z,0
2017-01-02T06:27:30.560Z,0
2017-01-02T06:28:41.881Z,0
2017-01-02T06:29:52.774Z,0
2017-01-02T06:31:04.088Z,0
2017-01-02T06:32:15.405Z,0
2017-01-02T06:33:26.342Z,0
2017-01-02T06:34:37.667Z,0
2017-01-02T06:35:48.560Z,0
2017-01-02T06:36:59.873Z,0
2017-01-02T06:38:11.194Z,0
2017-01-02T06:39:22.140Z,0
2017-01-02T06:40:33.461Z,0
2017-01-02T06:41:44.782Z,0
2017-01-02T06:42:55.671Z,0
2017-01-02T06:44:06.990Z,0
2017-01-02T06:45:17.930Z,0
2017-01-02T06:46:29.254Z,0
2017-01-02T06:47:40.572Z,0
2017-01-02T06:48:51.465Z,0
2017-01-02T06:50:02.386Z,0
2017-01-02T06:51:13.755Z,0
2017-01-02T06:52:25.080Z,0
2017-01-02T06:53:36.397Z,0
2017-01-02T06:54:47.727Z,0
2017-01-02T06:55:59.052Z,0
2017-01-02T06:57:09.561Z,0
2017-01-02T06:58:20.882Z,0
2017-01-02T06:59:31.783Z,0
2017-01-02T07:00:42.673Z,0
2017-01-02T07:01:53.990Z,0
2017-01-02T07:03:04.935Z,0
2017-01-02T07:04:16.257Z,0
2017-01-02T07:05:27.577Z,0
2017-01-02T07:06:38.479Z,0
2017-01-02T07:07:49.804Z,0
2017-01-02T07:09:00.750Z,0
2017-01-02T07:10:11.650Z,0
2017-01-02T07:11:22.971Z,0
2017-01-02T07:12:34.289Z,0
2017-01-02T07:13:45.186Z,0
2017-01-02T07:14:56.131Z,0
2017-01-02T07:16:06.598Z,0
2017-01-02T07:17:17.493Z,0
2017-01-02T07:18:28.806Z,0
2017-01-02T07:19:40.124Z,0
2017-01-02T07:20:51.061Z,0
2017-01-02T07:22:02.410Z,0
2017-01-02T07:23:13.299Z,0
2017-01-02T07:24:24.621Z,0
2017-01-02T07:25:35.510Z,0
2017-01-02T07:26:46.871Z,0
2017-01-02T07:27:57.760Z,0
2017-01-02T07:29:08.657Z,0
2017-01-02T07:30:19.551Z,0
2017-01-02T07:31:30.868Z,0
2017-01-02T07:32:42.441Z,0
2017-01-02T07:33:53.758Z,0
2017-01-02T07:35:05.076Z,0
2017-01-02T07:36:15.541Z,0
2017-01-02T07:37:26.430Z,0
2017-01-02T07:38:37.791Z,0
2017-01-02T07:39:48.260Z,0
2017-01-02T07:40:59.162Z,0
2017-01-02T07:42:10.479Z,0
2017-01-02T07:43:21.368Z,0
2017-01-02T07:44:32.729Z,0
2017-01-02T07:45:43.619Z,0
2017-01-02T07:46:54.935Z,0
2017-01-02T07:48:05.829Z,0
2017-01-02T07:49:16.718Z,0
2017-01-02T07:50:28.091Z,0
2017-01-02T07:51:39.015Z,0
2017-01-02T07:52:50.334Z,5
2017-01-02T07:54:01.263Z,5
2017-01-02T07:55:11.724Z,5
2017-01-02T07:56:22.670Z,5
2017-01-02T07:57:33.991Z,5
2017-01-02T07:58:45.311Z,5
2017-01-02T07:59:56.637Z,5
2017-01-02T08:01:07.526Z,5
2017-01-02T08:02:18.472Z,5
2017-01-02T08:03:29.377Z,5
2017-01-02T08:04:40.266Z,5
2017-01-02T08:05:51.595Z,5
2017-01-02T08:07:02.908Z,5
2017-01-02T08:08:14.270Z,5
2017-01-02T08:09:25.171Z,10
2017-01-02T08:10:36.060Z,10
2017-01-02T08:11:47.377Z,10
2017-01-02T08:12:58.270Z,10
2017-01-02T08:14:09.635Z,10
2017-01-02T08:15:20.981Z,10
2017-01-02T08:16:32.302Z,10
2017-01-02T08:17:43.195Z,10
2017-01-02T08:18:54.508Z,15
2017-01-02T08:20:05.874Z,15
2017-01-02T08:21:16.766Z,15
2017-01-02T08:22:28.100Z,15
2017-01-02T08:23:38.985Z,15
2017-01-02T08:24:50.319Z,15
2017-01-02T08:26:01.263Z,15
2017-01-02T08:27:12.153Z,15
2017-01-02T08:28:23.474Z,15
2017-01-02T08:29:33.935Z,15
2017-01-02T08:30:45.265Z,15
2017-01-02T08:31:56.206Z,20
2017-01-02T08:33:07.110Z,20
2017-01-02T08:34:18.424Z,20
2017-01-02T08:35:29.761Z,20
2017-01-02T08:36:40.659Z,20
2017-01-02T08:37:52.064Z,20
2017-01-02T08:39:03.389Z,20
2017-01-02T08:40:14.714Z,25
2017-01-02T08:41:26.043Z,20
2017-01-02T08:42:36.938Z,20
2017-01-02T08:43:48.462Z,20
2017-01-02T08:44:59.779Z,20
2017-01-02T08:46:11.103Z,20
2017-01-02T08:47:22.418Z,20
2017-01-02T08:48:33.314Z,20
2017-01-02T08:49:44.684Z,15
2017-01-02T08:50:56.001Z,15
2017-01-02T08:52:07.350Z,15
2017-01-02T08:53:18.671Z,20
2017-01-02T08:54:29.560Z,20
2017-01-02T08:55:40.925Z,20
2017-01-02T08:56:51.415Z,25
2017-01-02T08:58:02.736Z,25
2017-01-02T08:59:14.053Z,25
2017-01-02T09:00:24.511Z,25
2017-01-02T09:01:35.448Z,25
2017-01-02T09:02:46.338Z,25
2017-01-02T09:03:57.230Z,20
2017-01-02T09:05:08.551Z,20
2017-01-02T09:06:19.868Z,20
2017-01-02T09:07:30.806Z,20
2017-01-02T09:08:42.134Z,20
2017-01-02T09:09:53.460Z,20
2017-01-02T09:11:04.354Z,20
2017-01-02T09:12:15.678Z,20
2017-01-02T09:13:26.617Z,15
2017-01-02T09:14:37.517Z,5
2017-01-02T09:15:48.838Z,5
2017-01-02T09:17:00.159Z,5
2017-01-02T09:18:11.053Z,5
2017-01-02T09:19:22.414Z,5
2017-01-02T09:20:33.304Z,5
2017-01-02T09:21:44.628Z,5
2017-01-02T09:22:55.525Z,5
2017-01-02T09:24:06.011Z,5
2017-01-02T09:25:17.388Z,5
2017-01-02T09:26:28.277Z,5
2017-01-02T09:27:39.179Z,5
2017-01-02T09:28:50.500Z,5
2017-01-02T09:30:01.829Z,5
2017-01-02T09:31:12.766Z,5
2017-01-02T09:32:23.235Z,5
2017-01-02T09:33:34.568Z,5
2017-01-02T09:34:45.458Z,5
2017-01-02T09:35:56.775Z,5
2017-01-02T09:37:07.720Z,5
2017-01-02T09:38:19.038Z,5
2017-01-02T09:39:29.931Z,10
2017-01-02T09:40:40.828Z,10
2017-01-02T09:41:52.145Z,10
2017-01-02T09:43:03.082Z,10
2017-01-02T09:44:13.971Z,10
2017-01-02T09:45:25.285Z,10
2017-01-02T09:46:36.629Z,10
2017-01-02T09:47:47.943Z,15
2017-01-02T09:48:58.452Z,15
2017-01-02T09:50:09.777Z,15
2017-01-02T09:51:21.095Z,15
2017-01-02T09:52:31.984Z,20
2017-01-02T09:53:43.305Z,20
2017-01-02T09:54:54.266Z,20
2017-01-02T09:56:05.591Z,15
2017-01-02T09:57:16.481Z,15
2017-01-02T09:58:27.806Z,20
2017-01-02T09:59:38.707Z,20
2017-01-02T10:00:50.072Z,20
2017-01-02T10:02:01.394Z,20
2017-01-02T10:03:12.722Z,20
2017-01-02T10:04:24.068Z,25
2017-01-02T10:05:35.389Z,20
2017-01-02T10:06:46.331Z,20
2017-01-02T10:07:57.228Z,20
2017-01-02T10:09:08.545Z,25
2017-01-02T10:10:19.434Z,25
2017-01-02T10:11:30.763Z,25
2017-01-02T10:12:42.129Z,25
2017-01-02T10:13:53.450Z,25
2017-01-02T10:15:04.343Z,20
2017-01-02T10:16:15.236Z,20
2017-01-02T10:17:26.125Z,20
2017-01-02T10:18:37.222Z,20
2017-01-02T10:19:48.543Z,25
2017-01-02T10:20:59.865Z,20
2017-01-02T10:22:11.186Z,20
2017-01-02T10:23:22.499Z,20
2017-01-02T10:24:33.437Z,25
2017-01-02T10:25:44.330Z,25
2017-01-02T10:26:55.219Z,30
2017-01-02T10:28:06.540Z,30
2017-01-02T10:29:17.857Z,30
2017-01-02T10:30:28.798Z,25
2017-01-02T10:31:40.120Z,25
2017-01-02T10:32:51.449Z,20
2017-01-02T10:34:02.334Z,20
2017-01-02T10:35:13.227Z,20
2017-01-02T10:36:24.173Z,20
2017-01-02T10:37:35.490Z,20
2017-01-02T10:38:46.807Z,20
2017-01-02T10:39:57.696Z,20
2017-01-02T10:41:09.018Z,20
2017-01-02T10:42:19.963Z,20
2017-01-02T10:43:31.280Z,20
2017-01-02T10:44:41.749Z,20
2017-01-02T10:45:52.639Z,20
2017-01-02T10:47:03.535Z,20
2017-01-02T10:48:14.905Z,20
2017-01-02T10:49:25.362Z,20
2017-01-02T10:50:36.683Z,20
2017-01-02T10:51:48.004Z,25
2017-01-02T10:52:58.497Z,20
2017-01-02T10:54:10.027Z,20
2017-01-02T10:55:21.344Z,25
2017-01-02T10:56:32.234Z,30
2017-01-02T10:57:43.127Z,40
2017-01-02T10:58:54.471Z,45
2017-01-02T11:00:05.533Z,45
2017-01-02T11:01:16.422Z,40
2017-01-02T11:02:27.744Z,45
2017-01-02T11:03:38.664Z,50
2017-01-02T11:04:49.981Z,55
2017-01-02T11:06:01.355Z,55
2017-01-02T11:07:12.676Z,45
2017-01-02T11:08:23.997Z,50
2017-01-02T11:09:35.318Z,50
2017-01-02T11:10:46.636Z,50
2017-01-02T11:11:57.577Z,35
2017-01-02T11:13:08.470Z,35
2017-01-02T11:14:19.795Z,45
2017-01-02T11:15:31.104Z,50
2017-01-02T11:16:41.566Z,55
2017-01-02T11:17:52.511Z,55
2017-01-02T11:19:03.832Z,55
2017-01-02T11:20:15.161Z,65
2017-01-02T11:21:26.058Z,60
2017-01-02T11:22:36.952Z,60
2017-01-02T11:23:48.325Z,60
2017-01-02T11:24:59.226Z,60
2017-01-02T11:26:10.543Z,65
2017-01-02T11:27:21.864Z,60
2017-01-02T11:28:33.186Z,55
2017-01-02T11:29:44.563Z,50
2017-01-02T11:30:55.456Z,55
2017-01-02T11:32:06.773Z,45
2017-01-02T11:33:17.666Z,40
2017-01-02T11:34:28.559Z,35
2017-01-02T11:35:39.925Z,35
2017-01-02T11:36:50.826Z,40
2017-01-02T11:38:02.151Z,45
2017-01-02T11:39:13.468Z,45
2017-01-02T11:40:24.362Z,45
2017-01-02T11:41:35.730Z,40
2017-01-02T11:42:46.624Z,40
2017-01-02T11:43:57.941Z,35
2017-01-02T11:45:08.838Z,35
2017-01-02T11:46:19.735Z,30
2017-01-02T11:47:31.112Z,30
2017-01-02T11:48:42.430Z,30
2017-01-02T11:49:53.319Z,40
2017-01-02T11:51:04.644Z,40
2017-01-02T11:52:15.957Z,45
2017-01-02T11:53:26.906Z,45
2017-01-02T11:54:38.224Z,35
2017-01-02T11:55:49.537Z,45
2017-01-02T11:57:00.426Z,45
2017-01-02T11:58:11.743Z,50
2017-01-02T11:59:23.225Z,45
2017-01-02T12:00:34.545Z,35
2017-01-02T12:01:45.447Z,40
2017-01-02T12:02:56.796Z,40
2017-01-02T12:04:08.113Z,45
2017-01-02T12:05:19.055Z,40
2017-01-02T12:06:30.376Z,40
2017-01-02T12:07:41.705Z,40
2017-01-02T12:08:53.030Z,40
2017-01-02T12:10:03.923Z,40
2017-01-02T12:11:15.292Z,45
2017-01-02T12:12:26.614Z,50
2017-01-02T12:13:37.939Z,50
2017-01-02T12:14:49.260Z,50
2017-01-02T12:16:00.153Z,55
2017-01-02T12:17:11.094Z,55
2017-01-02T12:18:22.412Z,55
2017-01-02T12:19:33.305Z,55
2017-01-02T12:20:44.654Z,60
2017-01-02T12:21:55.983Z,60
2017-01-02T12:23:07.360Z,60
2017-01-02T12:24:18.677Z,60
2017-01-02T12:25:29.567Z,55
2017-01-02T12:26:40.888Z,55
2017-01-02T12:27:52.201Z,55
2017-01-02T12:29:03.146Z,55
2017-01-02T12:30:14.471Z,60
2017-01-02T12:31:25.360Z,60
2017-01-02T12:32:36.681Z,60
2017-01-02T12:33:47.575Z,60
2017-01-02T12:34:58.952Z,60
2017-01-02T12:36:09.841Z,60
2017-01-02T12:37:21.158Z,60
2017-01-02T12:38:32.480Z,60
2017-01-02T12:39:43.373Z,60
2017-01-02T12:40:54.754Z,65
2017-01-02T12:42:05.247Z,65
2017-01-02T12:43:16.564Z,65
2017-01-02T12:44:27.458Z,65
2017-01-02T12:45:38.358Z,60
2017-01-02T12:46:49.296Z,55
2017-01-02T12:48:00.193Z,55
2017-01-02T12:49:11.514Z,55
2017-01-02T12:50:22.408Z,55
2017-01-02T12:51:33.317Z,50
2017-01-02T12:52:44.698Z,55
2017-01-02T12:53:56.019Z,50
2017-01-02T12:55:06.924Z,55
2017-01-02T12:56:17.813Z,55
2017-01-02T12:57:28.714Z,55
2017-01-02T12:58:39.667Z,55
2017-01-02T12:59:50.989Z,55
2017-01-02T13:01:02.310Z,55
2017-01-02T13:02:13.203Z,55
2017-01-02T13:03:24.525Z,55
2017-01-02T13:04:35.049Z,50
2017-01-02T13:05:45.939Z,55
2017-01-02T13:06:56.824Z,55
2017-01-02T13:08:08.137Z,55
2017-01-02T13:09:19.026Z,50
2017-01-02T13:10:29.967Z,50
2017-01-02T13:11:40.897Z,45
2017-01-02T13:12:52.218Z,45
2017-01-02T13:14:03.143Z,45
2017-01-02T13:15:14.464Z,40
2017-01-02T13:16:25.409Z,40
2017-01-02T13:17:36.302Z,40
2017-01-02T13:18:47.624Z,40
2017-01-02T13:19:58.521Z,40
2017-01-02T13:21:09.842Z,40
2017-01-02T13:22:20.783Z,40
2017-01-02T13:23:31.676Z,40
2017-01-02T13:24:42.994Z,35
2017-01-02T13:25:53.895Z,35
2017-01-02T13:27:05.216Z,35
2017-01-02T13:28:16.610Z,35
2017-01-02T13:29:27.082Z,35
2017-01-02T13:30:37.979Z,35
2017-01-02T13:31:49.293Z,30
2017-01-02T13:33:00.187Z,30
2017-01-02T13:34:11.571Z,30
2017-01-02T13:35:22.888Z,30
2017-01-02T13:36:34.212Z,30
2017-01-02T13:37:45.530Z,30
2017-01-02T13:38:56.847Z,30
2017-01-02T13:40:08.316Z,30
2017-01-02T13:41:19.633Z,30
2017-01-02T13:42:30.527Z,30
2017-01-02T13:43:41.420Z,30
2017-01-02T13:44:52.741Z,30
2017-01-02T13:46:03.690Z,30
2017-01-02T13:47:15.011Z,30
2017-01-02T13:48:25.908Z,30
2017-01-02T13:49:36.802Z,30
2017-01-02T13:50:48.123Z,30
2017-01-02T13:51:59.496Z,30
2017-01-02T13:53:10.393Z,30
2017-01-02T13:54:21.710Z,30
2017-01-02T13:55:32.611Z,30
2017-01-02T13:56:43.508Z,30
2017-01-02T13:57:54.874Z,30
2017-01-02T13:59:05.771Z,30
2017-01-02T14:00:16.672Z,30
2017-01-02T14:01:27.577Z,25
2017-01-02T14:02:38.486Z,25
2017-01-02T14:03:49.435Z,25
2017-01-02T14:05:00.780Z,25
2017-01-02T14:06:11.261Z,25
2017-01-02T14:07:22.587Z,20
2017-01-02T14:08:33.908Z,20
2017-01-02T14:09:45.277Z,20
2017-01-02T14:10:56.590Z,20
2017-01-02T14:12:07.915Z,20
2017-01-02T14:13:18.813Z,20
2017-01-02T14:14:30.130Z,15
2017-01-02T14:15:41.075Z,15
2017-01-02T14:16:52.396Z,15
2017-01-02T14:18:03.717Z,15
2017-01-02T14:19:14.638Z,15
2017-01-02T14:20:25.532Z,15
2017-01-02T14:21:36.900Z,15
2017-01-02T14:22:48.218Z,15
2017-01-02T14:23:59.135Z,15
2017-01-02T14:25:10.024Z,15
2017-01-02T14:26:21.345Z,15
2017-01-02T14:27:31.855Z,15
2017-01-02T14:28:42.756Z,15
2017-01-02T14:29:54.077Z,15
2017-01-02T14:31:04.966Z,15
2017-01-02T14:32:15.859Z,15
2017-01-02T14:33:27.232Z,15
2017-01-02T14:34:38.122Z,15
2017-01-02T14:35:49.019Z,15
2017-01-02T14:37:00.336Z,10
2017-01-02T14:38:11.664Z,10
2017-01-02T14:39:22.602Z,10
2017-01-02T14:40:33.923Z,10
2017-01-02T14:41:45.285Z,10
2017-01-02T14:42:56.602Z,5
2017-01-02T14:44:07.919Z,5
2017-01-02T14:45:19.280Z,5
2017-01-02T14:46:30.177Z,5
2017-01-02T14:47:41.074Z,5
2017-01-02T14:48:52.391Z,5
2017-01-02T14:50:03.717Z,5
2017-01-02T14:51:15.086Z,5
2017-01-02T14:52:26.407Z,5
2017-01-02T14:53:37.328Z,5
2017-01-02T14:54:48.221Z,5
2017-01-02T14:55:59.538Z,5
2017-01-02T14:57:11.008Z,5
2017-01-02T14:58:21.901Z,5
2017-01-02T14:59:32.798Z,5
2017-01-02T15:00:43.696Z,5
2017-01-02T15:01:54.588Z,5
2017-01-02T15:03:05.966Z,5
2017-01-02T15:04:17.320Z,0
2017-01-02T15:05:28.640Z,0
2017-01-02T15:06:39.533Z,0
2017-01-02T15:07:50.886Z,0
2017-01-02T15:09:02.259Z,0
2017-01-02T15:10:13.160Z,0
2017-01-02T15:11:24.482Z,0
2017-01-02T15:12:35.383Z,0
2017-01-02T15:13:46.728Z,0
2017-01-02T15:14:57.673Z,0
2017-01-02T15:16:08.990Z,0
2017-01-02T15:17:19.879Z,0
2017-01-02T15:18:31.201Z,0
2017-01-02T15:19:42.086Z,0
2017-01-02T15:20:52.707Z,0
2017-01-02T15:22:03.604Z,0
2017-01-02T15:23:14.949Z,0
2017-01-02T15:24:26.267Z,0
2017-01-02T15:25:37.603Z,0
2017-01-02T15:26:48.589Z,0
2017-01-02T15:27:59.054Z,0
2017-01-02T15:29:09.948Z,0
2017-01-02T15:30:21.268Z,0
2017-01-02T15:31:32.585Z,0
2017-01-02T15:32:43.531Z,0
2017-01-02T15:33:54.848Z,0
2017-01-02T15:35:05.757Z,0
2017-01-02T15:36:17.074Z,0
2017-01-02T15:37:28.403Z,0
2017-01-02T15:38:39.064Z,0
2017-01-02T15:39:49.959Z,0
2017-01-02T15:41:00.859Z,0
2017-01-02T15:42:11.760Z,0
2017-01-02T15:43:23.077Z,0
2017-01-02T15:44:34.450Z,0
2017-01-02T15:45:45.343Z,0
2017-01-02T15:46:56.675Z,0
2017-01-02T15:48:07.573Z,0
2017-01-02T15:49:18.470Z,0
2017-01-02T15:50:29.848Z,0
2017-01-02T15:51:40.741Z,0
2017-01-02T15:52:51.639Z,0
2017-01-02T15:54:02.559Z,0
2017-01-02T15:55:13.469Z,0
2017-01-02T15:56:25.038Z,0
2017-01-02T15:57:35.931Z,0
2017-01-02T15:58:47.253Z,0
2017-01-02T15:59:58.574Z,0
2017-01-02T16:01:09.463Z,0
2017-01-02T16:02:20.828Z,0
2017-01-02T16:03:31.725Z,0
2017-01-02T16:04:43.042Z,0
2017-01-02T16:05:54.359Z,0
2017-01-02T16:07:05.681Z,0
2017-01-02T16:08:17.058Z,0
2017-01-02T16:09:27.951Z,0
2017-01-02T16:10:38.840Z,0
2017-01-02T16:11:49.733Z,0
2017-01-02T16:13:01.059Z,0
2017-01-02T16:14:12.003Z,0
2017-01-02T16:15:23.325Z,0
2017-01-02T16:16:34.658Z,0
2017-01-02T16:17:45.975Z,0
2017-01-02T16:18:57.294Z,0
2017-01-02T16:20:08.669Z,0
2017-01-02T16:21:19.998Z,0
2017-01-02T16:22:30.904Z,0
2017-01-02T16:23:41.373Z,0
2017-01-02T16:24:52.695Z,0
2017-01-02T16:26:03.639Z,0
2017-01-02T16:27:14.957Z,0
2017-01-02T16:28:25.850Z,0
2017-01-02T16:29:37.179Z,0
2017-01-02T16:30:48.068Z,0
2017-01-02T16:31:59.446Z,0
2017-01-02T16:33:10.343Z,0
2017-01-02T16:34:21.236Z,0
2017-01-02T16:35:32.125Z,0
2017-01-02T16:36:43.455Z,0
2017-01-02T16:37:54.391Z,0
2017-01-02T16:39:05.285Z,0
2017-01-02T16:40:16.610Z,0
2017-01-02T16:41:27.939Z,0
2017-01-02T16:42:38.833Z,0
2017-01-02T16:43:50.218Z,0
2017-01-02T16:45:01.535Z,0
2017-01-02T16:46:12.864Z,0
2017-01-02T16:47:23.753Z,0
2017-01-02T16:48:35.075Z,0
2017-01-02T16:49:46.012Z,0
2017-01-02T16:50:57.339Z,0
2017-01-02T16:52:08.238Z,0
2017-01-02T16:53:18.707Z,0
2017-01-02T16:54:30.041Z,0
2017-01-02T16:55:41.414Z,0
2017-01-02T16:56:52.763Z,0
2017-01-02T16:58:03.692Z,0
2017-01-02T16:59:15.021Z,0
2017-01-02T17:00:25.911Z,0
2017-01-02T17:01:37.280Z,0
2017-01-02T17:02:48.173Z,0
2017-01-02T17:03:59.067Z,0
2017-01-02T17:05:10.384Z,0
2017-01-02T17:06:21.701Z,0
2017-01-02T17:07:32.746Z,0
2017-01-02T17:08:44.075Z,0
2017-01-02T17:09:55.396Z,0
2017-01-02T17:11:06.290Z,0
2017-01-02T17:12:17.607Z,0
2017-01-02T17:13:28.548Z,0
2017-01-02T17:14:39.437Z,0
2017-01-02T17:15:50.331Z,0
2017-01-02T17:17:01.224Z,0